createdAt,value
2022-10-11T00:01:03.695Z,101370.00
2022-10-11T00:03:31.559Z,101365.63
2022-10-11T00:05:59.463Z,101363.75
2022-10-11T00:08:27.471Z,101366.28
2022-10-11T00:11:00.165Z,101372.47
2022-10-11T00:13:29.311Z,101378.38
2022-10-11T00:15:57.752Z,101379.84
2022-10-11T00:18:27.507Z,101379.72
2022-10-11T00:21:04.055Z,101378.97
2022-10-11T00:23:33.009Z,101385.03
2022-10-11T00:26:04.747Z,101386.66
2022-10-11T00:28:33.315Z,101383.25
2022-10-11T00:31:01.919Z,101389.25
2022-10-11T00:33:31.208Z,101388.00
2022-10-11T00:36:00.172Z,101393.50
2022-10-11T00:38:30.053Z,101388.81
2022-10-11T00:41:00.285Z,101401.44
2022-10-11T00:43:32.061Z,101394.44
2022-10-11T00:46:24.418Z,101400.47
2022-10-11T00:49:03.011Z,101399.00
2022-10-11T00:51:43.579Z,101405.13
2022-10-11T00:54:15.460Z,101402.72
2022-10-11T00:56:49.296Z,101403.00
2022-10-11T00:59:26.656Z,101402.94
2022-10-11T01:01:56.125Z,101405.28
2022-10-11T01:04:25.829Z,101408.69
2022-10-11T01:06:55.732Z,101405.97
2022-10-11T01:09:25.427Z,101409.47
2022-10-11T01:11:59.061Z,101412.88
2022-10-11T01:14:54.432Z,101412.00
2022-10-11T01:17:35.662Z,101422.03
2022-10-11T01:20:41.614Z,101419.50
2022-10-11T01:24:10.257Z,101411.47
2022-10-11T01:27:25.597Z,101412.81
2022-10-11T01:30:08.985Z,101421.97
2022-10-11T01:32:52.346Z,101414.69
2022-10-11T01:35:29.916Z,101421.34
2022-10-11T01:38:06.408Z,101421.00
2022-10-11T01:40:41.963Z,101425.59
2022-10-11T01:43:10.747Z,101427.28
2022-10-11T01:45:41.387Z,101422.81
2022-10-11T01:48:13.454Z,101428.13
2022-10-11T01:50:46.620Z,101428.75
2022-10-11T01:53:42.857Z,101429.56
2022-10-11T01:56:30.519Z,101428.13
2022-10-11T01:59:19.979Z,101433.75
2022-10-11T02:02:08.283Z,101435.69
2022-10-11T02:04:48.725Z,101435.75
2022-10-11T02:07:25.232Z,101433.16
2022-10-11T02:10:03.552Z,101437.53
2022-10-11T02:12:40.889Z,101431.56
2022-10-11T02:15:13.921Z,101442.91
2022-10-11T02:17:47.844Z,101438.63
2022-10-11T02:20:25.060Z,101444.88
2022-10-11T02:23:03.489Z,101443.22
2022-10-11T02:25:36.751Z,101445.81
2022-10-11T02:28:14.108Z,101446.00
2022-10-11T02:30:49.586Z,101442.44
2022-10-11T02:33:25.671Z,101441.47
2022-10-11T02:36:03.413Z,101437.75
2022-10-11T02:38:40.440Z,101440.84
2022-10-11T02:41:18.321Z,101443.28
2022-10-11T02:43:57.335Z,101451.41
2022-10-11T02:46:30.566Z,101452.38
2022-10-11T02:49:01.058Z,101447.31
2022-10-11T02:51:31.795Z,101452.63
2022-10-11T02:54:00.164Z,101454.53
2022-10-11T02:56:28.358Z,101455.34
2022-10-11T02:58:56.315Z,101461.81
2022-10-11T03:01:24.347Z,101464.22
2022-10-11T03:03:52.306Z,101463.56
2022-10-11T03:06:21.375Z,101463.88
2022-10-11T03:08:51.591Z,101468.41
2022-10-11T03:11:19.906Z,101467.72
2022-10-11T03:13:48.935Z,101472.91
2022-10-11T03:16:16.803Z,101467.00
2022-10-11T03:18:45.840Z,101474.84
2022-10-11T03:21:13.721Z,101465.25
2022-10-11T03:23:42.595Z,101475.31
2022-10-11T03:26:14.217Z,101479.34
2022-10-11T03:28:42.178Z,101492.78
2022-10-11T03:31:10.175Z,101483.03
2022-10-11T03:33:38.296Z,101488.03
2022-10-11T03:36:07.261Z,101491.31
2022-10-11T03:38:35.525Z,101488.59
2022-10-11T03:41:05.723Z,101501.97
2022-10-11T03:43:37.420Z,101496.44
2022-10-11T03:46:06.683Z,101491.13
2022-10-11T03:48:34.836Z,101494.50
2022-10-11T03:51:04.326Z,101497.78
2022-10-11T03:53:33.879Z,101500.94
2022-10-11T03:56:07.386Z,101497.56
2022-10-11T03:58:37.787Z,101503.34
2022-10-11T04:01:07.772Z,101513.03
2022-10-11T04:03:35.695Z,101517.63
2022-10-11T04:06:05.894Z,101506.59
2022-10-11T04:08:33.907Z,101523.84
2022-10-11T04:11:01.818Z,101511.91
2022-10-11T04:13:29.722Z,101521.56
2022-10-11T04:15:58.950Z,101521.56
2022-10-11T04:18:27.383Z,101525.03
2022-10-11T04:20:55.226Z,101520.44
2022-10-11T04:23:23.116Z,101525.44
2022-10-11T04:28:34.099Z,101535.09
2022-10-11T04:31:05.965Z,101531.38
2022-10-11T04:33:34.244Z,101543.06
2022-10-11T04:36:03.044Z,101539.78
2022-10-11T04:38:31.192Z,101534.63
2022-10-11T04:41:07.562Z,101549.72
2022-10-11T04:43:35.615Z,101546.19
2022-10-11T04:46:07.588Z,101547.47
2022-10-11T04:48:36.508Z,101551.53
2022-10-11T04:51:05.431Z,101547.47
2022-10-11T04:53:33.354Z,101552.34
2022-10-11T04:56:05.563Z,101550.09
2022-10-11T04:58:35.272Z,101548.59
2022-10-11T05:01:05.066Z,101552.31
2022-10-11T05:03:34.453Z,101551.53
2022-10-11T05:06:05.884Z,101555.03
2022-10-11T05:08:34.446Z,101558.78
2022-10-11T05:11:05.453Z,101563.38
2022-10-11T05:13:35.146Z,101569.63
2022-10-11T05:16:10.569Z,101561.06
2022-10-11T05:18:40.182Z,101557.66
2022-10-11T05:21:15.965Z,101558.16
2022-10-11T05:23:44.086Z,101568.91
2022-10-11T05:26:13.306Z,101571.44
2022-10-11T05:28:43.194Z,101579.06
2022-10-11T05:31:13.018Z,101584.78
2022-10-11T05:33:41.962Z,101573.06
2022-10-11T05:36:11.457Z,101577.50
2022-10-11T05:38:39.700Z,101576.13
2022-10-11T05:41:11.459Z,101585.16
2022-10-11T05:43:39.404Z,101583.75
2022-10-11T05:46:08.961Z,101581.97
2022-10-11T05:48:39.471Z,101586.31
2022-10-11T05:51:10.323Z,101585.50
2022-10-11T05:53:38.866Z,101583.22
2022-10-11T05:56:19.720Z,101591.38
2022-10-11T05:58:47.905Z,101584.81
2022-10-11T06:01:22.014Z,101595.47
2022-10-11T06:03:52.377Z,101590.56
2022-10-11T06:06:20.745Z,101594.19
2022-10-11T06:08:50.065Z,101595.69
2022-10-11T06:11:22.771Z,101598.59
2022-10-11T06:13:52.824Z,101602.34
2022-10-11T06:16:21.083Z,101598.06
2022-10-11T06:18:55.133Z,101609.25
2022-10-11T06:21:23.850Z,101608.91
2022-10-11T06:23:58.265Z,101611.03
2022-10-11T06:26:28.830Z,101614.03
2022-10-11T06:28:57.469Z,101613.22
2022-10-11T06:31:25.389Z,101622.03
2022-10-11T06:34:00.298Z,101631.97
2022-10-11T06:36:28.614Z,101623.69
2022-10-11T06:38:56.552Z,101630.88
2022-10-11T06:41:28.086Z,101637.94
2022-10-11T06:43:56.540Z,101642.22
2022-10-11T06:46:28.155Z,101643.47
2022-10-11T06:48:58.182Z,101636.06
2022-10-11T06:51:26.145Z,101642.66
2022-10-11T06:53:57.787Z,101641.38
2022-10-11T06:56:31.406Z,101645.25
2022-10-11T06:59:00.376Z,101648.81
2022-10-11T07:01:28.717Z,101656.63
2022-10-11T07:04:00.697Z,101654.47
2022-10-11T07:06:31.618Z,101658.56
2022-10-11T07:09:00.890Z,101659.88
2022-10-11T07:11:31.487Z,101661.94
2022-10-11T07:14:02.525Z,101661.34
2022-10-11T07:16:30.424Z,101663.31
2022-10-11T07:19:01.672Z,101667.16
2022-10-11T07:21:33.332Z,101665.19
2022-10-11T07:24:02.583Z,101667.34
2022-10-11T07:26:36.803Z,101669.63
2022-10-11T07:29:10.154Z,101669.09
2022-10-11T07:31:41.965Z,101677.28
2022-10-11T07:34:13.568Z,101669.75
2022-10-11T07:36:41.555Z,101678.13
2022-10-11T07:39:09.758Z,101677.75
2022-10-11T07:41:43.172Z,101674.72
2022-10-11T07:44:21.780Z,101677.13
2022-10-11T07:46:52.205Z,101674.84
2022-10-11T07:49:21.803Z,101674.41
2022-10-11T07:51:49.970Z,101678.22
2022-10-11T07:54:17.833Z,101678.78
2022-10-11T07:56:45.944Z,101684.78
2022-10-11T07:59:14.895Z,101682.78
2022-10-11T08:01:42.816Z,101686.72
2022-10-11T08:04:10.695Z,101682.63
2022-10-11T08:06:40.125Z,101687.44
2022-10-11T08:09:09.485Z,101690.53
2022-10-11T08:11:38.282Z,101678.25
2022-10-11T08:14:08.966Z,101673.06
2022-10-11T08:16:38.867Z,101675.34
2022-10-11T08:19:07.928Z,101681.84
2022-10-11T08:21:36.822Z,101672.56
2022-10-11T08:24:08.082Z,101679.31
2022-10-11T08:26:36.126Z,101684.25
2022-10-11T08:29:05.053Z,101676.31
2022-10-11T08:31:35.022Z,101672.25
2022-10-11T08:34:03.172Z,101680.78
2022-10-11T08:36:31.288Z,101676.66
2022-10-11T08:39:01.483Z,101682.06
2022-10-11T08:41:40.941Z,101685.63
2022-10-11T08:44:58.193Z,101691.38
2022-10-11T08:47:28.615Z,101688.34
2022-10-11T08:49:58.781Z,101693.56
2022-10-11T08:52:37.761Z,101692.41
2022-10-11T08:55:17.262Z,101694.22
2022-10-11T08:57:52.165Z,101698.66
2022-10-11T09:00:21.223Z,101699.88
2022-10-11T09:03:08.517Z,101693.34
2022-10-11T09:06:00.859Z,101700.63
2022-10-11T09:08:44.685Z,101695.00
2022-10-11T09:11:35.311Z,101692.97
2022-10-11T09:14:55.620Z,101694.75
2022-10-11T09:17:43.462Z,101701.25
2022-10-11T09:20:46.526Z,101705.50
2022-10-11T09:23:42.929Z,101701.56
2022-10-11T09:26:20.358Z,101705.63
2022-10-11T09:29:00.871Z,101696.66
2022-10-11T09:31:32.203Z,101702.34
2022-10-11T09:34:10.962Z,101693.50
2022-10-11T09:36:49.986Z,101700.69
2022-10-11T09:39:31.649Z,101691.78
2022-10-11T09:42:04.907Z,101695.34
2022-10-11T09:44:37.377Z,101696.16
2022-10-11T09:47:12.050Z,101694.16
2022-10-11T09:49:46.366Z,101701.50
2022-10-11T09:52:18.454Z,101697.97
2022-10-11T09:54:50.126Z,101689.81
2022-10-11T09:57:23.930Z,101691.28
2022-10-11T10:00:01.461Z,101698.13
2022-10-11T10:02:43.731Z,101694.91
2022-10-11T10:05:20.142Z,101703.38
2022-10-11T10:08:08.099Z,101702.56
2022-10-11T10:10:40.413Z,101709.88
2022-10-11T10:13:22.014Z,101702.59
2022-10-11T10:15:53.616Z,101705.81
2022-10-11T10:18:29.948Z,101716.41
2022-10-11T10:21:02.763Z,101709.22
2022-10-11T10:23:35.152Z,101701.44
2022-10-11T10:26:14.850Z,101700.25
2022-10-11T10:29:04.891Z,101700.56
2022-10-11T10:32:01.982Z,101703.50
2022-10-11T10:34:33.236Z,101705.38
2022-10-11T10:37:11.886Z,101708.75
2022-10-11T10:39:51.956Z,101704.59
2022-10-11T10:42:21.084Z,101698.75
2022-10-11T10:44:54.158Z,101707.59
2022-10-11T10:47:49.644Z,101702.38
2022-10-11T10:50:25.943Z,101701.63
2022-10-11T10:53:12.824Z,101694.72
2022-10-11T10:55:46.891Z,101695.84
2022-10-11T10:58:43.549Z,101695.16
2022-10-11T11:01:19.893Z,101696.00
2022-10-11T11:03:58.431Z,101697.63
2022-10-11T11:06:38.368Z,101689.44
2022-10-11T11:09:28.786Z,101687.91
2022-10-11T11:12:19.813Z,101693.41
2022-10-11T11:15:02.778Z,101683.06
2022-10-11T11:17:49.714Z,101681.19
2022-10-11T11:20:46.912Z,101683.31
2022-10-11T11:23:28.234Z,101684.19
2022-10-11T11:26:09.314Z,101678.84
2022-10-11T11:29:09.404Z,101674.63
2022-10-11T11:32:08.596Z,101674.97
2022-10-11T11:34:47.102Z,101683.47
2022-10-11T11:37:27.161Z,101678.81
2022-10-11T11:40:07.980Z,101669.41
2022-10-11T11:42:43.229Z,101665.13
2022-10-11T11:45:18.359Z,101670.13
2022-10-11T11:47:56.558Z,101679.41
2022-10-11T11:50:27.298Z,101671.63
2022-10-11T11:53:04.964Z,101674.63
2022-10-11T11:55:49.523Z,101662.88
2022-10-11T11:58:35.758Z,101662.78
2022-10-11T12:01:24.030Z,101656.28
2022-10-11T12:04:02.941Z,101660.22
2022-10-11T12:06:47.745Z,101658.94
2022-10-11T12:09:24.970Z,101658.56
2022-10-11T12:11:59.558Z,101652.63
2022-10-11T12:14:46.525Z,101645.78
2022-10-11T12:17:20.500Z,101654.72
2022-10-11T12:20:16.288Z,101643.25
2022-10-11T12:22:58.454Z,101639.19
2022-10-11T12:25:44.170Z,101637.75
2022-10-11T12:29:05.275Z,101637.50
2022-10-11T12:31:36.953Z,101630.66
2022-10-11T12:34:35.777Z,101632.09
2022-10-11T12:37:49.080Z,101634.06
2022-10-11T12:40:42.139Z,101629.69
2022-10-11T12:43:25.755Z,101626.94
2022-10-11T12:45:55.243Z,101620.03
2022-10-11T12:48:48.668Z,101620.03
2022-10-11T12:51:39.289Z,101616.53
2022-10-11T12:54:57.442Z,101618.28
2022-10-11T12:58:27.702Z,101619.91
2022-10-11T13:01:20.646Z,101618.88
2022-10-11T13:03:58.822Z,101616.19
2022-10-11T13:06:31.956Z,101613.41
2022-10-11T13:09:12.541Z,101611.50
2022-10-11T13:11:47.779Z,101616.72
2022-10-11T13:14:18.976Z,101610.34
2022-10-11T13:16:59.934Z,101617.06
2022-10-11T13:19:31.397Z,101607.13
2022-10-11T13:22:03.112Z,101617.09
2022-10-11T13:24:38.019Z,101615.97
2022-10-11T13:27:07.969Z,101613.00
2022-10-11T13:29:40.175Z,101616.63
2022-10-11T13:32:17.928Z,101610.66
2022-10-11T13:34:49.011Z,101608.16
2022-10-11T13:37:23.387Z,101601.16
2022-10-11T13:39:53.733Z,101594.94
2022-10-11T13:42:29.886Z,101598.84
2022-10-11T13:45:02.674Z,101594.53
2022-10-11T13:47:35.117Z,101591.47
2022-10-11T13:50:19.755Z,101583.88
2022-10-11T13:52:54.306Z,101593.81
2022-10-11T13:55:30.796Z,101596.56
2022-10-11T13:58:03.047Z,101585.47
2022-10-11T14:00:39.956Z,101584.09
2022-10-11T14:03:21.399Z,101579.84
2022-10-11T14:05:59.822Z,101571.81
2022-10-11T14:08:56.511Z,101580.53
2022-10-11T14:11:38.206Z,101589.38
2022-10-11T14:14:40.980Z,101582.41
2022-10-11T14:17:18.985Z,101581.38
2022-10-11T14:20:14.392Z,101581.47
2022-10-11T14:22:44.548Z,101584.25
2022-10-11T14:25:12.896Z,101579.13
2022-10-11T14:27:42.475Z,101573.16
2022-10-11T14:30:27.348Z,101578.88
2022-10-11T14:33:01.002Z,101579.94
2022-10-11T14:35:32.714Z,101573.25
2022-10-11T14:38:01.649Z,101574.28
2022-10-11T14:40:31.799Z,101587.09
2022-10-11T14:42:59.837Z,101576.91
2022-10-11T14:45:28.777Z,101580.47
2022-10-11T14:47:56.902Z,101579.59
2022-10-11T14:50:37.431Z,101573.41
2022-10-11T14:53:08.172Z,101579.34
2022-10-11T14:55:38.564Z,101574.19
2022-10-11T14:58:09.040Z,101579.56
2022-10-11T15:00:38.301Z,101578.53
2022-10-11T15:03:09.229Z,101577.66
2022-10-11T15:05:40.293Z,101577.69
2022-10-11T15:08:08.356Z,101583.06
2022-10-11T15:10:40.309Z,101584.00
2022-10-11T15:13:09.742Z,101590.00
2022-10-11T15:15:41.140Z,101583.66
2022-10-11T15:18:17.491Z,101576.31
2022-10-11T15:20:47.688Z,101582.16
2022-10-11T15:23:15.662Z,101577.53
2022-10-11T15:25:44.503Z,101586.09
2022-10-11T15:28:23.415Z,101578.44
2022-10-11T15:30:52.080Z,101571.44
2022-10-11T15:33:21.035Z,101575.63
2022-10-11T15:35:50.741Z,101577.88
2022-10-11T15:38:22.496Z,101568.91
2022-10-11T15:40:51.907Z,101575.78
2022-10-11T15:43:24.726Z,101587.72
2022-10-11T15:45:55.221Z,101577.16
2022-10-11T15:48:26.745Z,101577.22
2022-10-11T15:50:56.260Z,101575.16
2022-10-11T15:53:28.532Z,101573.28
2022-10-11T15:56:00.834Z,101578.53
2022-10-11T15:58:32.549Z,101575.88
2022-10-11T16:01:05.861Z,101579.25
2022-10-11T16:03:36.862Z,101579.94
2022-10-11T16:06:07.368Z,101570.28
2022-10-11T16:08:36.125Z,101579.63
2022-10-11T16:11:06.463Z,101572.53
2022-10-11T16:13:35.624Z,101585.31
2022-10-11T16:16:06.240Z,101586.72
2022-10-11T16:18:36.147Z,101587.38
2022-10-11T16:21:11.298Z,101588.81
2022-10-11T16:23:39.503Z,101587.47
2022-10-11T16:26:12.165Z,101587.34
2022-10-11T16:28:41.818Z,101592.34
2022-10-11T16:31:13.494Z,101585.91
2022-10-11T16:33:47.720Z,101587.38
2022-10-11T16:36:35.371Z,101583.63
2022-10-11T16:39:09.308Z,101591.88
2022-10-11T16:41:37.874Z,101586.50
2022-10-11T16:44:07.171Z,101587.91
2022-10-11T16:46:36.624Z,101594.31
2022-10-11T16:49:05.297Z,101590.56
2022-10-11T16:51:34.588Z,101585.06
2022-10-11T16:54:02.583Z,101584.84
2022-10-11T16:56:32.510Z,101581.06
2022-10-11T16:59:03.741Z,101578.97
2022-10-11T17:01:32.089Z,101581.09
2022-10-11T17:04:00.197Z,101583.50
2022-10-11T17:06:28.457Z,101582.34
2022-10-11T17:08:58.915Z,101581.91
2022-10-11T17:11:26.993Z,101578.66
2022-10-11T17:13:55.509Z,101585.19
2022-10-11T17:16:23.546Z,101590.06
2022-10-11T17:18:51.442Z,101585.38
2022-10-11T17:21:22.046Z,101594.63
2022-10-11T17:23:50.460Z,101587.50
2022-10-11T17:26:24.807Z,101590.78
2022-10-11T17:28:53.047Z,101595.75
2022-10-11T17:31:21.268Z,101598.06
2022-10-11T17:33:49.665Z,101596.81
2022-10-11T17:36:24.011Z,101597.59
2022-10-11T17:38:53.539Z,101596.53
2022-10-11T17:41:22.889Z,101598.28
2022-10-11T17:43:51.016Z,101603.56
2022-10-11T17:46:22.316Z,101592.13
2022-10-11T17:48:54.892Z,101599.84
2022-10-11T17:51:23.718Z,101597.13
2022-10-11T17:53:52.132Z,101598.19
2022-10-11T17:56:28.157Z,101592.97
2022-10-11T17:58:58.073Z,101592.97
2022-10-11T18:01:28.693Z,101595.50
2022-10-11T18:03:58.905Z,101591.09
2022-10-11T18:06:33.164Z,101599.84
2022-10-11T18:09:03.548Z,101590.28
2022-10-11T18:11:33.210Z,101599.63
2022-10-11T18:14:02.195Z,101604.47
2022-10-11T18:16:32.611Z,101599.66
2022-10-11T18:19:03.712Z,101604.59
2022-10-11T18:21:34.497Z,101601.91
2022-10-11T18:24:07.988Z,101598.41
2022-10-11T18:26:38.053Z,101600.03
2022-10-11T18:29:06.324Z,101608.53
2022-10-11T18:31:35.422Z,101604.78
2022-10-11T18:34:05.428Z,101603.69
2022-10-11T18:36:33.915Z,101600.78
2022-10-11T18:39:05.775Z,101600.38
2022-10-11T18:41:35.188Z,101599.31
2022-10-11T18:44:09.407Z,101594.78
2022-10-11T18:46:37.619Z,101589.34
2022-10-11T18:49:06.268Z,101586.59
2022-10-11T18:51:37.350Z,101595.50
2022-10-11T18:54:07.416Z,101598.53
2022-10-11T18:56:36.859Z,101600.94
2022-10-11T18:59:07.736Z,101594.63
2022-10-11T19:01:39.460Z,101592.47
2022-10-11T19:04:10.691Z,101593.72
2022-10-11T19:06:44.191Z,101589.03
2022-10-11T19:09:17.877Z,101596.63
2022-10-11T19:11:45.775Z,101593.78
2022-10-11T19:14:19.421Z,101597.56
2022-10-11T19:16:51.583Z,101591.94
2022-10-11T19:19:24.120Z,101593.44
2022-10-11T19:21:53.227Z,101587.84
2022-10-11T19:24:25.753Z,101586.09
2022-10-11T19:26:58.422Z,101583.69
2022-10-11T19:29:32.363Z,101583.28
2022-10-11T19:32:03.512Z,101590.00
2022-10-11T19:34:32.920Z,101583.50
2022-10-11T19:37:04.705Z,101582.19
2022-10-11T19:39:33.051Z,101583.56
2022-10-11T19:42:01.557Z,101585.00
2022-10-11T19:44:35.675Z,101579.59
2022-10-11T19:47:08.186Z,101584.03
2022-10-11T19:49:36.902Z,101579.91
2022-10-11T19:52:05.020Z,101583.91
2022-10-11T19:54:35.462Z,101585.25
2022-10-11T19:57:03.524Z,101579.66
2022-10-11T19:59:32.754Z,101584.56
2022-10-11T20:02:00.747Z,101582.50
2022-10-11T20:07:17.661Z,101596.56
2022-10-11T20:09:45.638Z,101593.75
2022-10-11T20:12:13.856Z,101584.88
2022-10-11T20:14:43.143Z,101593.47
2022-10-11T20:17:11.082Z,101586.63
2022-10-11T20:19:40.047Z,101592.31
2022-10-11T20:22:10.960Z,101597.63
2022-10-11T20:24:40.460Z,101592.56
2022-10-11T20:27:08.434Z,101592.44
2022-10-11T20:29:36.351Z,101587.25
2022-10-11T20:32:06.706Z,101591.38
2022-10-11T20:34:36.571Z,101597.28
2022-10-11T20:37:05.841Z,101596.25
2022-10-11T20:39:33.747Z,101603.03
2022-10-11T20:42:02.808Z,101588.44
2022-10-11T20:44:31.039Z,101585.69
2022-10-11T20:47:03.893Z,101594.47
2022-10-11T20:49:33.724Z,101590.03
2022-10-11T20:52:01.712Z,101592.84
2022-10-11T20:54:30.830Z,101585.91
2022-10-11T20:56:59.111Z,101588.41
2022-10-11T20:59:27.610Z,101578.66
2022-10-11T21:01:56.603Z,101586.00
2022-10-11T21:04:24.929Z,101583.25
2022-10-11T21:06:54.363Z,101580.66
2022-10-11T21:09:26.338Z,101587.03
2022-10-11T21:11:54.260Z,101584.25
2022-10-11T21:14:22.821Z,101586.78
2022-10-11T21:16:53.012Z,101587.22
2022-10-11T21:19:22.666Z,101584.94
2022-10-11T21:21:54.641Z,101585.06
2022-10-11T21:24:22.767Z,101581.63
2022-10-11T21:26:54.037Z,101580.72
2022-10-11T21:29:25.386Z,101580.34
2022-10-11T21:31:53.362Z,101580.19
2022-10-11T21:34:22.731Z,101577.84
2022-10-11T21:36:51.007Z,101588.53
2022-10-11T21:39:20.616Z,101581.25
2022-10-11T21:41:48.538Z,101579.50
2022-10-11T21:44:16.553Z,101592.03
2022-10-11T21:49:34.162Z,101589.03
2022-10-11T21:52:03.039Z,101591.47
2022-10-11T21:54:33.901Z,101591.63
2022-10-11T21:57:01.959Z,101600.03
2022-10-11T21:59:29.893Z,101596.91
2022-10-11T22:02:01.801Z,101593.59
2022-10-11T22:04:30.134Z,101590.19
2022-10-11T22:06:58.534Z,101597.47
2022-10-11T22:09:28.345Z,101600.63
2022-10-11T22:11:57.925Z,101597.22
2022-10-11T22:14:26.820Z,101598.09
2022-10-11T22:16:55.014Z,101596.50
2022-10-11T22:19:23.815Z,101592.47
2022-10-11T22:21:51.733Z,101591.50
2022-10-11T22:24:19.830Z,101587.78
2022-10-11T22:26:47.809Z,101592.78
2022-10-11T22:29:17.403Z,101594.75
2022-10-11T22:31:45.268Z,101601.66
2022-10-11T22:34:13.136Z,101594.91
2022-10-11T22:36:41.121Z,101591.50
2022-10-11T22:39:10.115Z,101591.50
2022-10-11T22:41:38.185Z,101589.56
2022-10-11T22:44:06.970Z,101589.56
2022-10-11T22:46:36.187Z,101590.19
2022-10-11T22:49:04.410Z,101597.78
2022-10-11T22:51:32.338Z,101590.03
2022-10-11T22:54:00.400Z,101580.69
2022-10-11T22:56:28.475Z,101581.66
2022-10-11T22:58:56.458Z,101575.69
2022-10-11T23:01:24.971Z,101583.03
2022-10-11T23:03:54.383Z,101583.91
2022-10-11T23:06:22.412Z,101581.31
2022-10-11T23:08:52.565Z,101578.75
2022-10-11T23:11:20.994Z,101578.75
2022-10-11T23:13:48.976Z,101581.00
2022-10-11T23:16:17.377Z,101588.59
2022-10-11T23:18:45.329Z,101583.69
2022-10-11T23:21:14.616Z,101573.56
2022-10-11T23:23:42.532Z,101580.53
2022-10-11T23:26:13.890Z,101574.56
2022-10-11T23:28:43.512Z,101576.16
2022-10-11T23:31:16.559Z,101570.78
2022-10-11T23:33:45.251Z,101581.25
2022-10-11T23:36:15.964Z,101573.41
2022-10-11T23:38:45.154Z,101576.81
2022-10-11T23:41:13.039Z,101573.41
2022-10-11T23:43:40.918Z,101573.56
2022-10-11T23:46:08.853Z,101570.06
2022-10-11T23:48:36.749Z,101572.28
2022-10-11T23:51:05.346Z,101579.09
2022-10-11T23:53:35.851Z,101576.16
2022-10-11T23:56:05.251Z,101578.75
2022-10-11T23:58:33.850Z,101575.38
